Time;durP1;ratioP1;P1;durP2;ratioP2;P2;SDS_P1;SDS_P2;PMS_P1;PMS_P2;Temp;Humidity;BMP_temperature;BMP_pressure;BME280_temperature;BME280_humidity;BME280_pressure;Samples;Min_cycle;Max_cycle;Signal;HPM_P1;HPM_P2
2023/03/17 00:01:57;;;;;;;30.50;14.40;;;1.30;54.20;;;;;;4965030;28;114632;-78
2023/03/17 00:04:26;;;;;;;27.20;13.93;;;1.20;53.70;;;;;;4962881;28;114665;-78
2023/03/17 00:06:53;;;;;;;26.08;13.85;;;1.20;53.50;;;;;;4962741;28;115093;-78
2023/03/17 00:09:21;;;;;;;22.20;10.82;;;1.20;53.80;;;;;;4947085;28;114691;-78
2023/03/17 00:11:48;;;;;;;26.00;12.07;;;1.10;53.50;;;;;;4947200;28;114953;-78
2023/03/17 00:14:17;;;;;;;22.63;11.38;;;1.20;53.60;;;;;;4963675;28;114795;-78
2023/03/17 00:16:48;;;;;;;25.55;12.88;;;1.20;53.30;;;;;;4967586;28;115217;-78
2023/03/17 00:19:18;;;;;;;22.08;11.10;;;1.20;53.50;;;;;;4969182;28;114659;-79
2023/03/17 00:21:46;;;;;;;23.95;11.02;;;1.20;53.50;;;;;;4970311;28;115547;-78
2023/03/17 00:24:14;;;;;;;21.10;10.73;;;1.20;53.60;;;;;;4970506;28;114169;-78
2023/03/17 00:26:42;;;;;;;22.33;11.10;;;1.30;53.30;;;;;;4953397;28;115226;-78
2023/03/17 00:29:09;;;;;;;20.48;11.05;;;1.30;53.10;;;;;;4970735;28;114814;-78
2023/03/17 00:31:37;;;;;;;19.33;10.85;;;1.30;53.10;;;;;;4971222;28;115065;-78
2023/03/17 00:34:06;;;;;;;19.80;11.32;;;1.30;52.90;;;;;;4969878;28;114518;-78
2023/03/17 00:36:34;;;;;;;19.42;11.32;;;1.30;53.10;;;;;;4970127;28;115181;-79
2023/03/17 00:39:02;;;;;;;21.65;11.02;;;1.30;53.10;;;;;;4953079;28;115048;-78
2023/03/17 00:41:30;;;;;;;21.23;11.50;;;1.40;53.20;;;;;;4937797;28;114611;-78
2023/03/17 00:43:58;;;;;;;24.35;12.88;;;1.40;53.20;;;;;;4970217;28;114698;-78
2023/03/17 00:46:34;;;;;;;22.77;13.27;;;1.40;53.10;;;;;;4968938;28;115151;-79
2023/03/17 00:49:09;;;;;;;24.13;13.48;;;1.50;52.90;;;;;;4969048;28;114631;-79
2023/03/17 00:51:39;;;;;;;23.80;13.18;;;1.50;52.90;;;;;;4954868;28;114746;-79
2023/03/17 00:54:09;;;;;;;29.58;14.43;;;1.50;53.00;;;;;;4969648;28;114407;-79
2023/03/17 00:56:37;;;;;;;26.35;12.90;;;1.50;53.20;;;;;;4968570;28;115795;-79
2023/03/17 00:59:12;;;;;;;25.35;13.30;;;1.50;53.10;;;;;;4936421;28;115249;-79
2023/03/17 01:01:39;;;;;;;21.23;11.48;;;1.40;53.00;;;;;;4969044;28;114631;-80
2023/03/17 01:04:09;;;;;;;20.85;13.32;;;1.40;52.90;;;;;;4953036;28;114799;-79
2023/03/17 01:06:36;;;;;;;24.02;11.98;;;1.40;53.00;;;;;;4968531;28;118377;-79
2023/03/17 01:09:04;;;;;;;22.10;12.75;;;1.40;53.00;;;;;;4952538;28;114567;-79
2023/03/17 01:11:31;;;;;;;22.17;11.63;;;1.40;53.20;;;;;;4952570;28;117367;-80
2023/03/17 01:13:58;;;;;;;20.60;11.45;;;1.40;53.20;;;;;;4969522;28;114321;-80
2023/03/17 01:16:28;;;;;;;23.98;11.98;;;1.40;53.10;;;;;;4968651;28;115136;-79
2023/03/17 01:18:56;;;;;;;21.52;12.60;;;1.40;53.20;;;;;;4985616;28;114596;-78
2023/03/17 01:21:23;;;;;;;24.65;13.50;;;1.40;53.20;;;;;;4989433;28;114422;-79
2023/03/17 01:23:50;;;;;;;23.17;10.35;;;1.40;53.30;;;;;;4957183;28;114724;-79
2023/03/17 01:26:17;;;;;;;19.90;10.88;;;1.40;52.80;;;;;;4987908;28;115092;-80
2023/03/17 01:28:45;;;;;;;20.55;11.32;;;1.30;52.90;;;;;;4968392;28;114672;-78
2023/03/17 01:31:12;;;;;;;18.13;11.32;;;1.30;53.10;;;;;;4986398;28;114535;-77
2023/03/17 01:33:40;;;;;;;20.67;11.35;;;1.30;53.20;;;;;;4964198;28;114452;-78
2023/03/17 01:36:08;;;;;;;18.98;9.65;;;1.20;52.90;;;;;;4965650;28;115569;-78
2023/03/17 01:38:36;;;;;;;25.02;11.27;;;1.30;52.90;;;;;;4965472;28;117775;-78
2023/03/17 01:41:04;;;;;;;22.35;11.77;;;1.30;52.90;;;;;;4967450;28;114338;-78
2023/03/17 01:43:31;;;;;;;20.70;11.50;;;1.40;53.10;;;;;;4966660;28;114438;-78
2023/03/17 01:46:20;;;;;;;21.73;11.65;;;1.30;53.10;;;;;;4965732;28;115757;-78
2023/03/17 01:49:29;;;;;;;26.85;13.40;;;1.50;52.90;;;;;;4965819;28;114659;-78
2023/03/17 01:52:17;;;;;;;26.27;13.82;;;1.40;53.00;;;;;;4949857;28;118234;-78
2023/03/17 01:54:49;;;;;;;28.65;15.02;;;1.40;53.30;;;;;;4933710;28;114458;-78
2023/03/17 01:57:30;;;;;;;25.20;13.60;;;1.30;53.30;;;;;;4964632;28;115287;-78
2023/03/17 02:00:08;;;;;;;23.35;13.70;;;1.30;53.30;;;;;;4947687;28;114942;-78
2023/03/17 02:02:44;;;;;;;31.92;15.10;;;1.30;53.60;;;;;;4965166;28;114590;-78
2023/03/17 02:05:24;;;;;;;25.77;13.40;;;1.20;53.50;;;;;;4965650;28;115723;-78
2023/03/17 02:07:53;;;;;;;28.33;14.55;;;1.20;53.50;;;;;;4947655;28;118364;-78
2023/03/17 02:10:27;;;;;;;25.85;13.38;;;1.20;53.50;;;;;;4948416;28;114674;-78
2023/03/17 02:12:59;;;;;;;25.70;13.32;;;1.20;53.60;;;;;;4948540;28;114344;-78
2023/03/17 02:15:45;;;;;;;28.83;14.55;;;1.20;53.50;;;;;;4948545;28;114521;-78
2023/03/17 02:18:13;;;;;;;25.05;12.70;;;1.20;53.70;;;;;;4931666;28;115143;-77
2023/03/17 02:20:40;;;;;;;26.08;12.68;;;1.20;53.50;;;;;;4964576;28;114718;-78
2023/03/17 02:23:09;;;;;;;21.10;11.70;;;1.20;53.50;;;;;;4964551;28;114508;-78
2023/03/17 02:25:39;;;;;;;22.58;11.00;;;1.10;53.50;;;;;;4933215;28;114686;-77
2023/03/17 02:28:09;;;;;;;22.45;12.15;;;1.10;53.50;;;;;;4964769;28;115507;-77
2023/03/17 02:30:37;;;;;;;23.83;11.85;;;1.10;53.40;;;;;;4963364;28;114812;-77
2023/03/17 02:33:04;;;;;;;22.63;10.80;;;1.00;53.30;;;;;;4964749;28;115046;-77
2023/03/17 02:35:32;;;;;;;20.50;11.40;;;1.00;53.10;;;;;;4948639;28;115520;-77
2023/03/17 02:37:59;;;;;;;21.70;10.88;;;1.00;53.10;;;;;;4963556;28;115303;-78
2023/03/17 02:40:28;;;;;;;21.08;11.23;;;1.00;52.90;;;;;;4930559;28;114758;-78
2023/03/17 02:42:56;;;;;;;23.55;10.40;;;1.00;52.90;;;;;;4948092;28;117076;-78
2023/03/17 02:45:27;;;;;;;25.25;11.25;;;0.90;52.90;;;;;;4964245;28;114681;-78
2023/03/17 02:47:56;;;;;;;19.92;11.25;;;0.90;52.70;;;;;;4963632;28;117977;-78
2023/03/17 02:50:25;;;;;;;22.35;11.43;;;0.80;52.80;;;;;;4947501;28;116361;-78
2023/03/17 02:52:52;;;;;;;22.77;12.50;;;0.80;52.80;;;;;;4964661;28;114915;-78
2023/03/17 02:55:19;;;;;;;22.20;11.55;;;0.70;52.90;;;;;;4955577;28;114436;-78
2023/03/17 02:57:50;;;;;;;20.35;11.57;;;0.70;53.10;;;;;;4963505;28;115127;-78
2023/03/17 03:00:18;;;;;;;21.58;11.60;;;0.80;53.30;;;;;;4964783;28;118434;-78
2023/03/17 03:02:45;;;;;;;26.15;12.05;;;0.80;53.20;;;;;;4965189;28;114383;-79
2023/03/17 03:05:13;;;;;;;20.45;12.18;;;0.80;53.40;;;;;;4964041;28;114432;-78
2023/03/17 03:07:40;;;;;;;25.17;11.10;;;0.90;53.60;;;;;;4962901;28;115524;-78
2023/03/17 03:10:08;;;;;;;22.00;11.60;;;0.90;53.60;;;;;;4984322;28;114628;-78
2023/03/17 03:12:36;;;;;;;21.48;11.55;;;0.90;53.40;;;;;;4962105;28;114390;-78
2023/03/17 03:15:04;;;;;;;20.45;11.57;;;1.10;53.40;;;;;;4947873;28;114937;-77
2023/03/17 03:17:31;;;;;;;19.25;10.70;;;1.10;53.20;;;;;;4964157;28;115073;-78
2023/03/17 03:19:58;;;;;;;17.25;10.18;;;1.10;53.20;;;;;;4978465;28;117021;-78
2023/03/17 03:22:26;;;;;;;18.55;10.30;;;1.10;53.40;;;;;;4983491;28;116211;-78
2023/03/17 03:24:53;;;;;;;20.38;10.85;;;1.20;53.40;;;;;;4983998;28;114456;-78
2023/03/17 03:27:20;;;;;;;18.58;10.77;;;1.20;53.30;;;;;;4977952;28;115558;-78
2023/03/17 03:29:48;;;;;;;19.15;9.48;;;1.20;53.20;;;;;;4964169;28;115084;-78
2023/03/17 03:32:15;;;;;;;18.98;10.05;;;1.20;53.00;;;;;;4948119;28;115632;-78
2023/03/17 03:34:43;;;;;;;16.25;9.10;;;1.30;52.90;;;;;;4962906;28;114399;-78
2023/03/17 03:37:10;;;;;;;22.85;10.48;;;1.30;52.70;;;;;;4965791;28;115416;-79
2023/03/17 03:39:37;;;;;;;17.75;10.02;;;1.20;52.80;;;;;;4975793;28;115361;-78
2023/03/17 03:42:05;;;;;;;16.75;9.23;;;1.20;52.80;;;;;;4985863;28;114406;-78
2023/03/17 03:44:33;;;;;;;19.20;10.75;;;1.30;52.90;;;;;;4985849;28;114567;-79
2023/03/17 03:47:00;;;;;;;17.35;9.10;;;1.20;52.60;;;;;;4984843;28;115237;-78
2023/03/17 03:49:28;;;;;;;15.18;7.95;;;1.20;52.50;;;;;;4984000;28;114690;-77
2023/03/17 03:51:55;;;;;;;17.60;8.15;;;1.20;52.10;;;;;;4984135;28;114734;-78
2023/03/17 03:54:25;;;;;;;14.38;7.68;;;1.20;51.80;;;;;;4984860;28;114490;-78
2023/03/17 03:56:52;;;;;;;16.75;7.85;;;1.20;52.00;;;;;;4966792;28;115555;-78
2023/03/17 03:59:19;;;;;;;14.10;6.65;;;1.20;52.00;;;;;;4984724;28;114591;-79
2023/03/17 04:01:47;;;;;;;14.15;6.82;;;1.20;51.40;;;;;;4983672;28;116292;-79
2023/03/17 04:04:15;;;;;;;11.75;6.28;;;1.20;51.50;;;;;;4967811;28;114416;-79
2023/03/17 04:06:42;;;;;;;12.48;7.50;;;1.10;51.50;;;;;;4984598;28;115751;-79
2023/03/17 04:09:12;;;;;;;14.27;8.57;;;1.20;51.50;;;;;;4983125;28;114660;-79
2023/03/17 04:11:39;;;;;;;13.23;6.85;;;1.20;51.50;;;;;;4945291;28;114395;-79
2023/03/17 04:14:07;;;;;;;14.95;7.57;;;1.20;51.60;;;;;;4964405;28;114556;-78
2023/03/17 04:16:35;;;;;;;14.18;7.82;;;1.20;51.70;;;;;;4962474;28;115529;-79
2023/03/17 04:19:02;;;;;;;15.52;7.25;;;1.20;51.70;;;;;;4963302;28;114801;-79
2023/03/17 04:21:30;;;;;;;10.27;6.47;;;1.20;51.60;;;;;;4947140;28;114589;-79
2023/03/17 04:23:57;;;;;;;14.43;7.72;;;1.20;51.30;;;;;;4964202;28;114682;-80
2023/03/17 04:26:24;;;;;;;12.15;6.00;;;1.30;51.40;;;;;;4963070;28;115089;-79
2023/03/17 04:28:52;;;;;;;12.85;6.20;;;1.20;51.00;;;;;;4962842;28;118327;-79
2023/03/17 04:31:19;;;;;;;13.13;6.85;;;1.30;51.00;;;;;;4965392;28;116764;-79
2023/03/17 04:33:47;;;;;;;15.38;8.15;;;1.30;51.10;;;;;;4947551;28;114404;-79
2023/03/17 04:36:19;;;;;;;14.90;6.93;;;1.30;51.30;;;;;;4964245;28;115822;-79
2023/03/17 04:38:46;;;;;;;13.38;7.22;;;1.40;51.10;;;;;;4963622;28;115229;-79
2023/03/17 04:41:14;;;;;;;13.95;6.35;;;1.40;51.00;;;;;;4964985;28;114374;-79
2023/03/17 04:43:41;;;;;;;13.90;7.00;;;1.40;50.90;;;;;;4945163;28;114727;-79
2023/03/17 04:46:08;;;;;;;9.88;5.05;;;1.40;50.60;;;;;;4962684;28;115152;-78
2023/03/17 04:48:36;;;;;;;10.68;5.45;;;1.40;50.00;;;;;;4946726;28;114682;-79
2023/03/17 04:51:03;;;;;;;11.10;5.90;;;1.30;49.90;;;;;;4965183;28;114757;-78
2023/03/17 04:53:31;;;;;;;12.93;6.18;;;1.30;50.00;;;;;;4965018;28;114359;-80
2023/03/17 04:55:58;;;;;;;9.77;5.80;;;1.40;50.00;;;;;;4975614;28;115147;-79
2023/03/17 04:58:25;;;;;;;13.02;6.28;;;1.40;50.10;;;;;;4965719;28;115270;-78
2023/03/17 05:01:01;;;;;;;13.00;6.50;;;1.40;49.90;;;;;;4983462;28;114378;-78
2023/03/17 05:03:29;;;;;;;13.60;6.22;;;1.40;49.60;;;;;;4969810;28;114447;-79
2023/03/17 05:05:56;;;;;;;11.65;5.78;;;1.30;49.70;;;;;;4969194;28;115246;-79
2023/03/17 05:08:30;;;;;;;11.30;5.95;;;1.30;49.70;;;;;;4970004;28;115581;-79
2023/03/17 05:10:57;;;;;;;12.35;6.22;;;1.30;49.70;;;;;;4985876;28;114728;-79
2023/03/17 05:13:25;;;;;;;11.57;6.53;;;1.30;49.60;;;;;;4986255;28;114408;-79
2023/03/17 05:15:54;;;;;;;12.55;6.00;;;1.30;49.60;;;;;;4985849;28;115164;-79
2023/03/17 05:18:24;;;;;;;12.55;6.47;;;1.20;49.40;;;;;;4968984;28;115913;-79
2023/03/17 05:20:52;;;;;;;10.07;5.55;;;1.20;49.50;;;;;;4969478;28;114848;-80
2023/03/17 05:23:19;;;;;;;13.45;5.53;;;1.30;49.40;;;;;;4986471;28;114476;-79
2023/03/17 05:25:47;;;;;;;12.60;6.40;;;1.30;49.50;;;;;;4984862;28;115378;-78
2023/03/17 05:28:14;;;;;;;11.68;5.93;;;1.50;49.40;;;;;;4985922;28;115140;-80
2023/03/17 05:30:42;;;;;;;11.63;6.60;;;1.60;49.30;;;;;;4987929;28;114438;-78
2023/03/17 05:33:09;;;;;;;11.20;6.10;;;1.90;49.20;;;;;;4970533;28;114479;-77
2023/03/17 05:35:36;;;;;;;12.00;6.07;;;2.10;48.70;;;;;;4985098;28;115082;-78
2023/03/17 05:38:04;;;;;;;10.88;5.95;;;2.20;48.30;;;;;;4985454;28;116085;-78
2023/03/17 05:40:31;;;;;;;15.82;6.45;;;2.30;48.20;;;;;;4987406;28;114461;-77
2023/03/17 05:43:02;;;;;;;12.00;6.30;;;2.60;47.90;;;;;;4987605;28;114354;-78
2023/03/17 05:45:29;;;;;;;14.30;6.40;;;2.70;47.50;;;;;;4985178;28;115179;-79
2023/03/17 05:47:56;;;;;;;9.77;5.38;;;2.90;47.60;;;;;;4986094;28;114767;-78
2023/03/17 05:50:24;;;;;;;10.07;5.32;;;3.10;46.80;;;;;;4985776;28;114766;-79
2023/03/17 05:52:52;;;;;;;12.10;5.60;;;3.20;45.80;;;;;;4986485;28;114242;-79
2023/03/17 05:55:19;;;;;;;14.00;7.00;;;3.20;46.00;;;;;;4968486;28;115472;-79
2023/03/17 05:57:50;;;;;;;10.63;5.85;;;3.30;45.50;;;;;;4985676;28;115944;-79
2023/03/17 06:00:21;;;;;;;9.30;4.82;;;3.50;45.40;;;;;;4985098;28;117060;-79
2023/03/17 06:02:49;;;;;;;9.25;4.65;;;3.60;45.10;;;;;;4969604;28;114419;-80
2023/03/17 06:05:16;;;;;;;9.15;5.32;;;3.70;44.70;;;;;;4984851;28;115030;-79
2023/03/17 06:07:44;;;;;;;10.60;5.53;;;3.90;44.10;;;;;;4951575;28;114853;-79
2023/03/17 06:10:23;;;;;;;11.60;5.00;;;4.00;43.80;;;;;;4981315;28;117000;-79
2023/03/17 06:12:50;;;;;;;9.98;5.20;;;4.20;43.60;;;;;;4933545;28;114727;-80
2023/03/17 06:15:18;;;;;;;10.30;5.18;;;4.30;43.80;;;;;;4965869;28;116306;-79
2023/03/17 06:17:45;;;;;;;8.20;5.20;;;4.60;43.30;;;;;;4964803;28;114847;-80
2023/03/17 06:20:13;;;;;;;10.82;5.30;;;4.70;43.10;;;;;;4949000;28;114470;-79
2023/03/17 06:22:41;;;;;;;9.57;5.05;;;4.90;42.70;;;;;;4965627;28;114420;-79
2023/03/17 06:25:29;;;;;;;9.57;5.18;;;4.90;42.00;;;;;;4964037;28;115117;-79
2023/03/17 06:27:57;;;;;;;9.40;5.38;;;5.00;42.00;;;;;;4964272;28;114833;-79
2023/03/17 06:30:24;;;;;;;13.00;4.97;;;5.10;41.80;;;;;;4965301;28;114734;-79
2023/03/17 06:32:51;;;;;;;9.63;4.82;;;5.10;40.80;;;;;;4965448;28;114373;-79
2023/03/17 06:35:19;;;;;;;9.05;4.53;;;5.10;41.20;;;;;;4947747;28;117875;-79
2023/03/17 06:37:49;;;;;;;10.55;5.40;;;5.10;40.80;;;;;;4948516;28;114693;-79
2023/03/17 06:40:16;;;;;;;9.07;5.10;;;5.20;40.90;;;;;;4966183;28;114255;-79
2023/03/17 06:42:44;;;;;;;9.80;4.68;;;5.20;40.70;;;;;;4949478;28;114795;-79
2023/03/17 06:45:12;;;;;;;8.57;4.25;;;5.30;39.40;;;;;;4965279;28;116221;-79
2023/03/17 06:47:39;;;;;;;9.35;4.88;;;5.30;40.10;;;;;;4983200;28;114852;-79
2023/03/17 06:50:17;;;;;;;10.80;4.90;;;5.40;39.50;;;;;;4985352;28;114297;-79
2023/03/17 06:52:48;;;;;;;8.73;4.53;;;5.50;39.00;;;;;;4986301;28;114332;-79
2023/03/17 06:55:16;;;;;;;10.80;4.95;;;5.50;38.80;;;;;;4967181;28;119031;-80
2023/03/17 06:57:44;;;;;;;11.05;4.88;;;5.50;39.20;;;;;;4983728;28;115821;-80
2023/03/17 07:00:12;;;;;;;10.00;4.97;;;5.70;38.80;;;;;;4985763;28;114629;-80
2023/03/17 07:02:40;;;;;;;8.88;4.60;;;5.70;38.50;;;;;;4980124;28;115577;-79
2023/03/17 07:05:08;;;;;;;8.85;4.30;;;5.80;38.50;;;;;;4963958;28;115668;-78
2023/03/17 07:07:35;;;;;;;13.85;4.90;;;5.90;37.80;;;;;;4964403;28;114682;-78
2023/03/17 07:10:04;;;;;;;9.90;4.88;;;5.80;38.20;;;;;;4966141;28;114722;-79
2023/03/17 07:12:32;;;;;;;9.68;4.60;;;6.00;37.80;;;;;;4965687;28;114748;-80
2023/03/17 07:15:00;;;;;;;9.43;4.18;;;6.00;37.80;;;;;;4963261;28;115153;-80
2023/03/17 07:17:27;;;;;;;9.65;4.72;;;6.00;36.90;;;;;;4964913;28;114711;-79
2023/03/17 07:19:55;;;;;;;9.38;5.07;;;6.00;37.10;;;;;;4964996;28;114671;-78
2023/03/17 07:22:25;;;;;;;14.55;5.47;;;6.00;37.30;;;;;;4985068;28;114643;-79
2023/03/17 07:24:53;;;;;;;9.93;4.40;;;6.10;37.80;;;;;;4982389;28;116738;-79
2023/03/17 07:27:24;;;;;;;10.25;4.80;;;6.20;36.90;;;;;;4982630;28;118960;-80
2023/03/17 07:29:51;;;;;;;9.27;3.75;;;6.20;37.20;;;;;;4968064;28;114595;-81
2023/03/17 07:32:19;;;;;;;12.38;5.20;;;6.20;36.40;;;;;;4978181;28;114568;-79
2023/03/17 07:34:46;;;;;;;14.18;6.55;;;6.20;37.00;;;;;;4964693;28;116795;-79
2023/03/17 07:37:14;;;;;;;11.25;4.78;;;6.30;37.10;;;;;;4964549;28;116379;-79
2023/03/17 07:39:41;;;;;;;9.27;4.43;;;6.30;36.40;;;;;;4963720;28;114374;-80
2023/03/17 07:42:10;;;;;;;11.70;4.70;;;6.40;36.90;;;;;;4965309;28;114387;-80
2023/03/17 07:44:40;;;;;;;9.43;4.88;;;6.50;36.90;;;;;;4965872;28;115340;-81
2023/03/17 07:47:09;;;;;;;12.48;5.13;;;6.60;36.80;;;;;;4984362;28;114724;-80
2023/03/17 07:49:36;;;;;;;9.13;4.32;;;6.70;36.20;;;;;;4983774;28;114768;-78
2023/03/17 07:52:09;;;;;;;9.05;5.28;;;6.80;36.30;;;;;;4968077;28;114636;-79
2023/03/17 07:54:36;;;;;;;12.20;5.57;;;6.70;35.60;;;;;;4961638;28;117165;-79
2023/03/17 07:57:04;;;;;;;10.98;4.20;;;6.70;36.10;;;;;;4970912;28;116605;-79
2023/03/17 07:59:32;;;;;;;16.13;6.25;;;6.70;35.00;;;;;;4962256;28;114539;-79
2023/03/17 08:02:00;;;;;;;18.48;5.45;;;6.70;35.80;;;;;;4948096;28;114411;-78
2023/03/17 08:04:28;;;;;;;11.68;5.50;;;6.80;36.20;;;;;;4962230;28;115532;-79
2023/03/17 08:06:56;;;;;;;10.10;4.53;;;6.90;35.30;;;;;;4963054;28;114878;-80
2023/03/17 08:09:24;;;;;;;10.27;5.65;;;7.00;35.80;;;;;;4963504;28;114358;-80
2023/03/17 08:11:51;;;;;;;14.13;5.85;;;7.10;35.80;;;;;;4964960;28;114675;-80
2023/03/17 08:14:19;;;;;;;12.43;5.50;;;7.20;35.60;;;;;;4964471;28;118006;-79
2023/03/17 08:16:46;;;;;;;10.77;5.70;;;7.20;35.10;;;;;;4964562;28;115196;-80
2023/03/17 08:19:15;;;;;;;10.55;5.35;;;7.20;34.80;;;;;;4947904;28;114851;-80
2023/03/17 08:21:42;;;;;;;10.18;4.85;;;7.20;35.00;;;;;;4964476;28;114395;-79
2023/03/17 08:24:10;;;;;;;10.27;5.60;;;7.20;34.40;;;;;;4964477;28;115194;-79
2023/03/17 08:26:38;;;;;;;13.50;5.32;;;7.20;34.50;;;;;;4963096;28;114748;-79
2023/03/17 08:29:07;;;;;;;9.82;4.57;;;7.10;34.50;;;;;;4964057;28;114350;-81
2023/03/17 08:31:43;;;;;;;13.23;5.43;;;7.20;34.80;;;;;;4964807;28;114364;-81
2023/03/17 08:34:12;;;;;;;9.77;5.20;;;7.20;35.00;;;;;;4965325;28;115153;-80
2023/03/17 08:36:40;;;;;;;8.05;4.28;;;7.30;34.70;;;;;;4964378;28;115865;-81
2023/03/17 08:39:09;;;;;;;9.80;4.70;;;7.40;33.70;;;;;;4968971;28;114350;-80
2023/03/17 08:41:42;;;;;;;13.55;4.95;;;7.40;33.50;;;;;;4968673;28;114289;-80
2023/03/17 08:44:09;;;;;;;10.10;4.75;;;7.40;33.40;;;;;;4967446;28;115160;-79
2023/03/17 08:46:43;;;;;;;11.77;5.17;;;7.20;33.80;;;;;;4968326;28;114569;-79
2023/03/17 08:49:11;;;;;;;11.70;5.43;;;7.30;34.00;;;;;;4968872;28;114543;-79
2023/03/17 08:51:39;;;;;;;8.63;4.85;;;7.40;34.80;;;;;;4968229;28;114377;-79
2023/03/17 08:54:06;;;;;;;9.57;4.65;;;7.60;34.60;;;;;;4966094;28;115182;-79
2023/03/17 08:56:34;;;;;;;9.25;4.63;;;7.90;33.90;;;;;;4965801;28;115271;-79
2023/03/17 08:59:05;;;;;;;7.85;4.07;;;7.90;33.60;;;;;;4968149;28;114479;-79
2023/03/17 09:01:34;;;;;;;14.45;4.13;;;7.90;33.30;;;;;;4968591;28;114328;-79
2023/03/17 09:04:04;;;;;;;11.48;4.80;;;7.90;33.50;;;;;;4966313;28;115016;-79
2023/03/17 09:06:31;;;;;;;9.73;5.10;;;7.90;33.20;;;;;;4966226;28;114708;-80
2023/03/17 09:09:22;;;;;;;7.35;4.47;;;7.90;33.50;;;;;;4965593;28;114475;-79
2023/03/17 09:11:49;;;;;;;10.98;5.18;;;8.10;33.40;;;;;;4965492;28;114388;-80
2023/03/17 09:14:20;;;;;;;10.10;4.90;;;8.20;33.40;;;;;;4966882;28;115112;-79
2023/03/17 09:16:48;;;;;;;9.07;4.43;;;8.20;32.80;;;;;;4967058;28;114993;-79
2023/03/17 09:19:16;;;;;;;8.43;4.70;;;8.20;33.10;;;;;;4967126;28;114345;-80
2023/03/17 09:21:46;;;;;;;10.30;5.20;;;8.30;33.20;;;;;;4967740;28;114373;-79
2023/03/17 09:24:14;;;;;;;10.43;5.40;;;8.50;33.20;;;;;;4963034;28;115248;-80
2023/03/17 09:26:41;;;;;;;9.13;5.47;;;8.40;32.80;;;;;;4949237;28;114797;-80
2023/03/17 09:29:08;;;;;;;9.98;4.72;;;8.30;33.10;;;;;;4973658;28;115396;-80
2023/03/17 09:31:40;;;;;;;8.38;4.55;;;8.40;33.40;;;;;;4966361;28;114343;-79
2023/03/17 09:34:08;;;;;;;9.68;5.15;;;8.50;32.60;;;;;;4966463;28;115025;-80
2023/03/17 09:36:36;;;;;;;11.10;5.20;;;8.50;33.10;;;;;;4965632;28;114600;-80
2023/03/17 09:39:03;;;;;;;10.32;5.10;;;8.60;32.90;;;;;;4950173;28;114446;-80
2023/03/17 09:42:06;;;;;;;10.00;5.03;;;8.60;32.50;;;;;;4976366;28;114229;-80
2023/03/17 09:45:08;;;;;;;13.40;5.55;;;8.70;33.10;;;;;;4963208;28;115679;-80
2023/03/17 09:48:22;;;;;;;7.85;4.53;;;8.70;32.30;;;;;;4964772;28;114658;-80
2023/03/17 09:51:10;;;;;;;7.15;4.43;;;8.70;31.50;;;;;;4966213;28;114529;-80
2023/03/17 09:54:27;;;;;;;6.82;4.38;;;8.60;31.80;;;;;;4965405;28;114442;-80
2023/03/17 09:57:03;;;;;;;10.68;4.90;;;8.60;31.00;;;;;;4953787;28;116628;-81
2023/03/17 09:59:39;;;;;;;10.82;4.93;;;8.50;31.50;;;;;;4964879;28;115214;-80
2023/03/17 10:02:29;;;;;;;10.00;5.15;;;8.50;31.90;;;;;;4965610;28;114442;-80
2023/03/17 10:04:57;;;;;;;11.43;5.15;;;8.60;31.40;;;;;;4960983;28;114836;-80
2023/03/17 10:07:43;;;;;;;9.32;4.63;;;8.70;30.90;;;;;;4984131;28;115122;-80
2023/03/17 10:10:36;;;;;;;6.85;4.07;;;8.70;31.70;;;;;;4983799;28;115437;-81
2023/03/17 10:13:35;;;;;;;12.20;5.35;;;8.80;30.40;;;;;;4985854;28;114387;-81
2023/03/17 10:16:11;;;;;;;10.15;5.45;;;8.70;30.20;;;;;;4987381;28;114908;-80
2023/03/17 10:18:48;;;;;;;9.55;4.18;;;8.80;30.70;;;;;;4984333;28;115516;-80
2023/03/17 10:21:20;;;;;;;8.57;4.20;;;9.10;30.80;;;;;;4984294;28;114756;-80
2023/03/17 10:23:47;;;;;;;11.73;4.63;;;9.30;30.30;;;;;;4929526;28;114599;-80
2023/03/17 10:26:39;;;;;;;10.50;4.28;;;9.60;30.50;;;;;;4916832;28;114738;-79
2023/03/17 10:29:33;;;;;;;10.30;4.05;;;9.80;30.50;;;;;;4964139;28;115219;-78
2023/03/17 10:32:12;;;;;;;8.55;3.97;;;10.00;30.30;;;;;;4964303;28;115139;-78
2023/03/17 10:34:40;;;;;;;7.15;4.00;;;10.20;29.60;;;;;;4948772;28;114550;-78
2023/03/17 10:37:17;;;;;;;7.65;3.80;;;10.30;29.70;;;;;;4965769;28;114611;-79
2023/03/17 10:39:50;;;;;;;7.45;3.83;;;10.50;29.10;;;;;;4963376;28;115227;-79
2023/03/17 10:42:28;;;;;;;8.40;4.40;;;10.60;29.10;;;;;;4964196;28;114713;-79
2023/03/17 10:45:16;;;;;;;7.50;3.88;;;10.70;28.80;;;;;;4941919;28;114410;-79
2023/03/17 10:47:46;;;;;;;6.45;3.63;;;10.70;28.80;;;;;;4951661;28;114355;-79
2023/03/17 10:50:24;;;;;;;9.23;3.50;;;10.70;28.80;;;;;;4963747;28;115383;-79
2023/03/17 10:53:26;;;;;;;12.65;4.20;;;10.70;28.20;;;;;;4948804;28;114782;-79
2023/03/17 10:56:07;;;;;;;6.00;3.60;;;10.70;28.30;;;;;;4964765;28;114626;-80
2023/03/17 10:58:47;;;;;;;7.80;4.00;;;10.80;28.30;;;;;;4965195;28;114651;-79
2023/03/17 11:01:29;;;;;;;9.13;3.40;;;10.90;28.10;;;;;;4963326;28;115198;-79
2023/03/17 11:03:56;;;;;;;8.90;4.05;;;11.00;28.20;;;;;;4965190;28;117024;-80
2023/03/17 11:06:37;;;;;;;8.63;4.47;;;11.00;27.90;;;;;;4984212;28;119351;-79
2023/03/17 11:09:09;;;;;;;9.23;4.82;;;10.80;27.00;;;;;;4984772;28;114793;-79
2023/03/17 11:11:45;;;;;;;11.43;5.25;;;10.50;28.00;;;;;;4970288;28;116252;-79
2023/03/17 11:14:17;;;;;;;10.05;4.80;;;10.40;28.20;;;;;;4963643;28;116148;-79
2023/03/17 11:16:52;;;;;;;10.75;5.20;;;10.30;28.50;;;;;;4966062;28;114407;-80
2023/03/17 11:19:30;;;;;;;9.13;4.95;;;10.30;29.00;;;;;;4965742;28;114498;-80
2023/03/17 11:22:19;;;;;;;10.57;5.25;;;10.30;28.90;;;;;;4963884;28;116591;-80
2023/03/17 11:25:08;;;;;;;8.40;3.53;;;10.40;28.60;;;;;;4947925;28;116055;-80
2023/03/17 11:27:53;;;;;;;7.28;3.42;;;10.50;27.20;;;;;;4949183;28;114786;-80
2023/03/17 11:30:32;;;;;;;9.80;4.22;;;10.40;26.50;;;;;;4977339;28;118926;-80
2023/03/17 11:33:41;;;;;;;10.20;5.30;;;10.20;27.40;;;;;;4982274;28;115827;-80
2023/03/17 11:36:36;;;;;;;8.52;4.55;;;10.10;27.90;;;;;;4983416;28;114694;-80
2023/03/17 11:39:33;;;;;;;;;;;9.90;28.40;;;;;;4983929;28;114593;-79
2023/03/17 11:42:21;;;;;;;9.52;4.95;;;9.70;29.10;;;;;;4983908;28;114418;-80
2023/03/17 11:44:55;;;;;;;9.23;4.82;;;9.70;28.90;;;;;;4955192;28;117995;-79
2023/03/17 11:47:38;;;;;;;7.95;4.55;;;9.70;29.10;;;;;;4946042;28;114702;-80
2023/03/17 11:50:32;;;;;;;9.13;4.90;;;9.80;29.00;;;;;;4963510;28;114484;-80
2023/03/17 11:53:29;;;;;;;8.82;4.88;;;9.80;29.20;;;;;;4964675;28;114702;-79
2023/03/17 11:56:17;;;;;;;10.30;5.72;;;9.90;28.90;;;;;;4963682;28;115064;-80
2023/03/17 11:58:48;;;;;;;7.72;4.53;;;9.80;29.20;;;;;;4946062;28;117294;-80
2023/03/17 12:01:26;;;;;;;8.60;5.28;;;9.90;28.60;;;;;;4946355;28;114727;-81
2023/03/17 12:04:22;;;;;;;11.45;4.53;;;9.90;28.80;;;;;;4962876;28;114460;-79
2023/03/17 12:06:53;;;;;;;9.82;4.70;;;9.80;29.30;;;;;;4962708;28;115145;-80
2023/03/17 12:10:06;;;;;;;12.23;5.60;;;9.90;29.70;;;;;;4931369;28;116832;-78
2023/03/17 12:13:01;;;;;;;10.43;4.93;;;10.10;30.10;;;;;;4963204;28;114769;-80
2023/03/17 12:15:52;;;;;;;9.45;5.15;;;10.10;29.30;;;;;;4933434;28;115804;-80
2023/03/17 12:18:41;;;;;;;8.63;4.40;;;10.20;29.60;;;;;;4947419;28;119120;-81
2023/03/17 12:21:38;;;;;;;8.88;4.40;;;10.30;29.10;;;;;;4961329;28;114749;-78
2023/03/17 12:24:34;;;;;;;7.50;4.85;;;10.40;29.10;;;;;;4950254;28;114775;-78
2023/03/17 12:27:24;;;;;;;8.07;4.40;;;10.40;28.60;;;;;;4962406;28;114755;-79
2023/03/17 12:30:06;;;;;;;7.35;4.00;;;10.60;28.60;;;;;;4961242;28;115722;-79
2023/03/17 12:32:41;;;;;;;8.25;4.50;;;10.70;28.80;;;;;;4961855;28;114542;-79
2023/03/17 12:35:27;;;;;;;12.45;6.55;;;10.80;28.50;;;;;;4932907;28;114607;-79
2023/03/17 12:37:57;;;;;;;8.30;4.90;;;10.90;28.50;;;;;;4972294;28;114411;-79
2023/03/17 12:40:47;;;;;;;10.50;4.30;;;11.00;28.80;;;;;;4945751;28;115690;-78
2023/03/17 12:43:34;;;;;;;10.75;5.40;;;11.10;28.30;;;;;;4948333;28;114568;-79
2023/03/17 12:46:27;;;;;;;7.25;3.60;;;11.20;27.60;;;;;;4962759;28;116913;-79
2023/03/17 12:49:10;;;;;;;8.18;4.25;;;11.20;26.80;;;;;;4948855;28;119072;-79
2023/03/17 12:51:57;;;;;;;9.57;3.80;;;11.20;27.20;;;;;;4961762;28;115134;-80
2023/03/17 12:54:35;;;;;;;7.53;3.90;;;11.20;27.10;;;;;;4962275;28;114650;-79
2023/03/17 12:57:18;;;;;;;7.55;3.83;;;11.20;26.70;;;;;;4930479;28;114663;-79
2023/03/17 13:00:04;;;;;;;8.27;3.95;;;11.20;27.20;;;;;;4947536;28;114628;-79
2023/03/17 13:02:36;;;;;;;7.00;3.55;;;11.20;26.80;;;;;;4962212;28;116057;-78
2023/03/17 13:05:31;;;;;;;7.47;3.70;;;11.20;26.90;;;;;;4961559;28;114720;-79